Time;durP1;ratioP1;P1;durP2;ratioP2;P2;SDS_P1;SDS_P2;PMS_P1;PMS_P2;Temp;Humidity;BMP_temperature;BMP_pressure;BME280_temperature;BME280_humidity;BME280_pressure;Samples;Min_cycle;Max_cycle;Signal;HPM_P1;HPM_P2
2023/04/23 00:01:07;;;;;;;64.38;28.80;;;8.40;99.90;;;;;;5017708;28;20060;-92
2023/04/23 00:03:35;;;;;;;58.70;28.50;;;8.30;99.90;;;;;;5025408;28;20053;-91
2023/04/23 00:06:10;;;;;;;47.75;27.80;;;8.30;99.90;;;;;;5018686;28;20489;-91
2023/04/23 00:08:41;;;;;;;49.78;27.15;;;8.30;99.90;;;;;;5036314;28;20227;-92
2023/04/23 00:11:08;;;;;;;50.78;25.80;;;8.30;99.90;;;;;;5009627;28;20069;-92
2023/04/23 00:13:35;;;;;;;51.95;27.55;;;8.20;99.90;;;;;;5022110;28;20056;-91
2023/04/23 00:16:03;;;;;;;49.67;27.98;;;8.30;99.90;;;;;;5039661;28;20431;-91
2023/04/23 00:18:29;;;;;;;45.97;26.63;;;8.30;99.90;;;;;;5036342;28;20029;-91
2023/04/23 00:20:55;;;;;;;48.15;26.17;;;8.20;99.90;;;;;;5038465;28;20417;-91
2023/04/23 00:23:21;;;;;;;48.60;25.90;;;8.10;99.90;;;;;;5019857;28;20109;-90
2023/04/23 00:25:46;;;;;;;62.40;28.15;;;8.10;99.90;;;;;;5020195;28;20480;-91
2023/04/23 00:28:12;;;;;;;45.20;25.15;;;8.10;99.90;;;;;;5033836;28;20063;-91
2023/04/23 00:30:38;;;;;;;47.35;26.73;;;8.00;99.90;;;;;;5018842;28;20116;-91
2023/04/23 00:33:03;;;;;;;46.30;28.25;;;8.10;99.90;;;;;;5034955;28;20449;-91
2023/04/23 00:35:32;;;;;;;44.47;25.95;;;8.00;99.90;;;;;;5033593;28;20607;-91
2023/04/23 00:37:58;;;;;;;46.30;26.23;;;7.90;99.90;;;;;;5018560;28;20159;-90
2023/04/23 00:40:24;;;;;;;44.65;25.52;;;7.90;99.90;;;;;;5035718;28;20052;-90
2023/04/23 00:42:52;;;;;;;46.47;27.30;;;7.80;99.90;;;;;;5031461;28;20095;-91
2023/04/23 00:45:19;;;;;;;46.20;25.13;;;7.90;99.90;;;;;;5022993;28;20567;-91
2023/04/23 00:47:52;;;;;;;127.75;29.58;;;7.80;99.90;;;;;;5018500;28;20052;-90
2023/04/23 00:50:19;;;;;;;47.20;26.88;;;7.80;99.90;;;;;;5035057;28;20076;-91
2023/04/23 00:52:45;;;;;;;53.22;27.40;;;7.80;99.90;;;;;;5022821;28;20039;-91
2023/04/23 00:55:10;;;;;;;48.63;26.83;;;7.80;99.90;;;;;;5018646;28;20071;-91
2023/04/23 00:57:40;;;;;;;54.95;28.13;;;7.70;99.90;;;;;;5028935;28;20055;-90
2023/04/23 01:00:06;;;;;;;50.20;27.35;;;7.70;99.90;;;;;;5039075;28;20041;-91
2023/04/23 01:02:35;;;;;;;50.92;27.17;;;7.60;99.90;;;;;;5018955;28;20119;-89
2023/04/23 01:05:02;;;;;;;62.25;29.55;;;7.60;99.90;;;;;;5020399;28;20037;-92
2023/04/23 01:07:29;;;;;;;49.28;28.23;;;7.60;99.90;;;;;;5036254;28;20041;-91
2023/04/23 01:09:55;;;;;;;54.65;28.08;;;7.60;99.90;;;;;;5020053;28;20056;-91
2023/04/23 01:12:21;;;;;;;47.70;26.77;;;7.60;99.90;;;;;;5017099;28;20229;-91
2023/04/23 01:14:47;;;;;;;46.85;27.38;;;7.60;99.90;;;;;;5036047;28;20874;-91
2023/04/23 01:17:13;;;;;;;45.97;26.00;;;7.60;99.90;;;;;;5033893;28;20632;-90
2023/04/23 01:19:39;;;;;;;52.72;27.90;;;7.60;99.90;;;;;;5035014;28;20132;-92
2023/04/23 01:22:10;;;;;;;56.33;29.75;;;7.60;99.90;;;;;;5035880;28;20487;-90
2023/04/23 01:24:37;;;;;;;51.95;28.35;;;7.50;99.90;;;;;;5018286;28;20512;-90
2023/04/23 01:27:06;;;;;;;54.78;28.98;;;7.50;99.90;;;;;;5021114;28;20110;-90
2023/04/23 01:29:33;;;;;;;57.00;29.67;;;7.50;99.90;;;;;;5019864;28;20142;-91
2023/04/23 01:31:59;;;;;;;59.72;29.48;;;7.50;99.90;;;;;;5017198;28;20033;-90
2023/04/23 01:34:32;;;;;;;50.70;26.77;;;7.50;99.90;;;;;;5033430;28;20420;-90
2023/04/23 01:36:58;;;;;;;56.08;29.38;;;7.40;99.90;;;;;;5016263;28;20044;-90
2023/04/23 01:39:24;;;;;;;51.05;29.67;;;7.40;99.90;;;;;;5016864;28;20037;-89
2023/04/23 01:41:51;;;;;;;69.30;30.48;;;7.40;99.90;;;;;;5034551;28;20043;-91
2023/04/23 01:44:20;;;;;;;60.05;30.13;;;7.50;99.90;;;;;;5020821;28;20972;-90
2023/04/23 01:46:46;;;;;;;61.40;31.38;;;7.50;99.90;;;;;;5037096;28;20047;-90
2023/04/23 01:49:12;;;;;;;57.95;30.02;;;7.40;99.90;;;;;;5019823;28;20102;-89
2023/04/23 01:51:37;;;;;;;58.90;30.20;;;7.50;99.90;;;;;;5016406;28;20503;-90
2023/04/23 01:54:03;;;;;;;60.70;31.35;;;7.50;99.90;;;;;;5017003;28;20345;-90
2023/04/23 01:56:29;;;;;;;60.40;32.75;;;7.50;99.90;;;;;;5030961;28;20033;-90
2023/04/23 01:58:55;;;;;;;61.80;31.15;;;7.50;99.90;;;;;;5018102;28;20041;-89
2023/04/23 02:01:21;;;;;;;70.13;32.58;;;7.50;99.90;;;;;;5018519;28;20044;-89
2023/04/23 02:03:49;;;;;;;70.38;34.78;;;7.40;99.90;;;;;;5032806;28;20029;-89
2023/04/23 02:06:16;;;;;;;74.60;34.95;;;7.40;99.90;;;;;;5036516;28;20037;-91
2023/04/23 02:08:42;;;;;;;66.28;34.25;;;7.50;99.90;;;;;;5041638;28;20408;-90
2023/04/23 02:11:08;;;;;;;73.10;35.75;;;7.40;99.90;;;;;;5014257;28;20482;-89
2023/04/23 02:13:34;;;;;;;76.25;36.50;;;7.40;99.90;;;;;;5016183;28;20049;-89
2023/04/23 02:16:03;;;;;;;74.50;36.78;;;7.40;99.90;;;;;;5018786;28;20040;-89
2023/04/23 02:18:28;;;;;;;70.82;35.40;;;7.30;99.90;;;;;;5013442;28;20041;-89
2023/04/23 02:20:55;;;;;;;80.47;37.83;;;7.30;99.90;;;;;;5016407;28;20047;-89
2023/04/23 02:23:20;;;;;;;82.72;39.35;;;7.20;99.90;;;;;;5020647;28;20126;-90
2023/04/23 02:25:46;;;;;;;83.35;39.15;;;7.30;99.90;;;;;;5031393;28;20056;-90
2023/04/23 02:28:12;;;;;;;80.10;37.25;;;7.20;99.90;;;;;;5014876;28;20040;-89
2023/04/23 02:30:44;;;;;;;75.22;34.42;;;7.20;99.90;;;;;;5038477;28;20049;-90
2023/04/23 02:33:10;;;;;;;75.55;37.08;;;7.10;99.90;;;;;;5017980;28;20041;-90
2023/04/23 02:35:35;;;;;;;81.63;38.45;;;7.10;99.90;;;;;;5014020;28;20211;-90
2023/04/23 02:38:01;;;;;;;76.55;37.47;;;7.10;99.90;;;;;;5014849;28;20622;-90
2023/04/23 02:40:27;;;;;;;80.22;36.72;;;7.10;99.90;;;;;;5015723;28;20033;-89
2023/04/23 02:42:52;;;;;;;74.28;35.53;;;7.00;99.90;;;;;;5031178;28;20061;-89
2023/04/23 02:45:18;;;;;;;78.80;37.65;;;7.00;99.90;;;;;;5014908;28;20048;-89
2023/04/23 02:47:43;;;;;;;74.30;37.78;;;7.00;99.90;;;;;;5031407;28;20107;-90
2023/04/23 02:50:12;;;;;;;96.00;41.22;;;7.00;99.90;;;;;;5032099;28;20158;-90
2023/04/23 02:52:37;;;;;;;78.40;38.95;;;7.00;99.90;;;;;;5015639;28;20076;-89
2023/04/23 02:55:04;;;;;;;91.55;41.28;;;6.90;99.90;;;;;;5031440;28;20045;-90
2023/04/23 02:57:29;;;;;;;83.78;39.67;;;6.90;99.90;;;;;;5036246;28;20114;-89
2023/04/23 02:59:55;;;;;;;85.20;39.35;;;7.00;99.90;;;;;;5033548;28;20068;-90
2023/04/23 03:02:21;;;;;;;80.00;38.10;;;6.90;99.90;;;;;;5032299;28;20044;-88
2023/04/23 03:04:46;;;;;;;92.38;38.70;;;6.90;99.90;;;;;;5014223;28;20281;-89
2023/04/23 03:07:16;;;;;;;87.43;38.05;;;6.90;99.90;;;;;;5035647;28;20036;-89
2023/04/23 03:09:42;;;;;;;71.60;36.50;;;6.90;99.90;;;;;;5022727;28;20044;-89
2023/04/23 03:12:08;;;;;;;95.20;40.90;;;6.90;99.90;;;;;;5030982;28;20547;-90
2023/04/23 03:14:34;;;;;;;79.40;37.42;;;7.00;99.90;;;;;;5019699;28;20053;-90
2023/04/23 03:16:59;;;;;;;87.03;37.88;;;7.00;99.90;;;;;;5016555;28;20037;-90
2023/04/23 03:19:25;;;;;;;76.25;36.15;;;7.00;99.90;;;;;;5034640;28;20041;-89
2023/04/23 03:21:51;;;;;;;70.88;35.00;;;7.00;99.90;;;;;;5036493;28;20065;-89
2023/04/23 03:24:17;;;;;;;95.25;40.47;;;7.00;99.90;;;;;;5037273;28;20152;-90
2023/04/23 03:26:42;;;;;;;80.40;38.60;;;6.90;99.90;;;;;;5017622;28;20520;-89
2023/04/23 03:29:09;;;;;;;84.63;39.90;;;6.90;99.90;;;;;;5036187;28;20363;-89
2023/04/23 03:31:35;;;;;;;97.45;41.33;;;6.90;99.90;;;;;;5037918;28;20060;-89
2023/04/23 03:34:00;;;;;;;84.40;39.40;;;6.80;99.90;;;;;;5020134;28;20461;-90
2023/04/23 03:36:26;;;;;;;97.70;39.83;;;6.80;99.90;;;;;;5032777;28;20045;-89
2023/04/23 03:38:52;;;;;;;94.20;40.35;;;6.80;99.90;;;;;;5018676;28;20094;-90
2023/04/23 03:41:18;;;;;;;94.93;40.80;;;6.80;99.90;;;;;;5040728;28;20033;-89
2023/04/23 03:43:44;;;;;;;82.30;36.20;;;6.80;99.90;;;;;;5037282;28;20041;-88
2023/04/23 03:46:12;;;;;;;80.60;37.78;;;6.80;99.90;;;;;;5018499;28;20891;-89
2023/04/23 03:48:38;;;;;;;96.43;40.92;;;6.80;99.90;;;;;;5036862;28;20055;-89
2023/04/23 03:51:03;;;;;;;174.43;43.10;;;6.80;99.90;;;;;;5035802;28;20044;-89
2023/04/23 03:53:29;;;;;;;267.60;45.58;;;6.90;99.90;;;;;;5022626;28;20037;-89
2023/04/23 03:55:55;;;;;;;142.85;44.22;;;6.90;99.90;;;;;;5032565;28;20078;-89
2023/04/23 03:58:20;;;;;;;125.60;43.78;;;7.00;99.90;;;;;;5020156;28;20033;-89
2023/04/23 04:00:46;;;;;;;276.80;48.17;;;7.00;99.90;;;;;;5032635;28;20098;-89
2023/04/23 04:03:11;;;;;;;158.68;45.00;;;7.00;99.90;;;;;;5015895;28;20049;-89
2023/04/23 04:05:37;;;;;;;221.07;46.38;;;7.10;99.90;;;;;;5035203;28;20041;-88
2023/04/23 04:08:04;;;;;;;309.20;51.90;;;7.10;99.90;;;;;;5038852;28;20033;-89
2023/04/23 04:10:29;;;;;;;197.23;46.30;;;7.10;99.90;;;;;;5034715;28;20117;-89
2023/04/23 04:12:55;;;;;;;297.45;49.03;;;7.20;99.90;;;;;;5019948;28;20061;-89
2023/04/23 04:15:21;;;;;;;160.15;42.67;;;7.20;99.90;;;;;;5020870;28;20043;-89
2023/04/23 04:17:47;;;;;;;199.30;45.45;;;7.20;99.90;;;;;;5017474;28;20099;-89
2023/04/23 04:20:14;;;;;;;198.38;44.60;;;7.20;99.90;;;;;;5018182;28;20077;-89
2023/04/23 04:22:41;;;;;;;253.25;47.53;;;7.20;99.90;;;;;;5036549;28;20081;-89
2023/04/23 04:25:07;;;;;;;158.10;41.15;;;7.20;99.90;;;;;;5033589;28;20110;-88
2023/04/23 04:27:33;;;;;;;160.85;45.55;;;7.30;99.90;;;;;;5037676;28;20489;-88
2023/04/23 04:30:04;;;;;;;240.52;47.97;;;7.40;99.90;;;;;;5018756;28;20052;-88
2023/04/23 04:32:30;;;;;;;151.75;45.38;;;7.40;99.90;;;;;;5021552;28;20024;-88
2023/04/23 04:34:59;;;;;;;137.80;46.50;;;7.40;99.90;;;;;;5019555;28;20115;-89
2023/04/23 04:37:25;;;;;;;118.63;45.53;;;7.50;99.90;;;;;;5018714;28;20126;-88
2023/04/23 04:39:50;;;;;;;171.52;48.38;;;7.50;99.90;;;;;;5031524;28;20066;-88
2023/04/23 04:42:16;;;;;;;189.73;47.78;;;7.60;99.90;;;;;;5018834;28;20194;-88
2023/04/23 04:44:42;;;;;;;190.75;49.05;;;7.60;99.90;;;;;;5034285;28;20060;-90
2023/04/23 04:47:08;;;;;;;133.32;49.83;;;7.60;99.90;;;;;;5014187;28;20183;-89
2023/04/23 04:49:34;;;;;;;136.07;50.13;;;7.60;99.90;;;;;;5035943;28;20177;-89
2023/04/23 04:52:03;;;;;;;142.63;47.20;;;7.60;99.90;;;;;;5039902;28;20125;-88
2023/04/23 04:54:28;;;;;;;127.47;47.72;;;7.70;99.90;;;;;;5020689;28;20040;-90
2023/04/23 04:56:54;;;;;;;172.85;49.40;;;7.70;99.90;;;;;;5017148;28;20093;-88
2023/04/23 04:59:19;;;;;;;176.18;51.00;;;7.80;99.90;;;;;;5019810;28;20049;-90
2023/04/23 05:01:45;;;;;;;262.38;57.75;;;7.80;99.90;;;;;;5017803;28;20457;-89
2023/04/23 05:04:11;;;;;;;177.77;51.25;;;7.80;99.90;;;;;;5015193;28;20497;-89
2023/04/23 05:06:36;;;;;;;283.98;55.95;;;7.90;99.90;;;;;;5021404;28;20405;-89
2023/04/23 05:09:02;;;;;;;237.95;57.17;;;8.00;99.90;;;;;;5018338;28;20117;-88
2023/04/23 05:11:31;;;;;;;179.90;52.85;;;8.10;99.90;;;;;;5020394;28;20116;-88
2023/04/23 05:13:56;;;;;;;170.38;53.88;;;8.20;99.90;;;;;;5017394;28;20399;-88
2023/04/23 05:16:23;;;;;;;134.20;52.67;;;8.30;99.90;;;;;;5018607;28;20076;-89
2023/04/23 05:18:51;;;;;;;135.50;52.97;;;8.30;99.90;;;;;;5034308;28;21270;-89
2023/04/23 05:21:18;;;;;;;206.85;59.67;;;8.30;99.90;;;;;;5035196;28;20044;-89
2023/04/23 05:23:44;;;;;;;222.93;57.63;;;8.40;99.90;;;;;;5031928;28;20053;-89
2023/04/23 05:26:12;;;;;;;146.98;55.50;;;8.50;99.90;;;;;;5015391;28;20465;-89
2023/04/23 05:28:38;;;;;;;196.27;60.45;;;8.60;99.90;;;;;;5014823;28;20413;-89
2023/04/23 05:31:04;;;;;;;188.95;61.22;;;8.70;99.90;;;;;;5020178;28;20041;-89
2023/04/23 05:33:30;;;;;;;210.05;61.55;;;8.70;99.90;;;;;;5015995;28;20041;-89
2023/04/23 05:35:56;;;;;;;165.50;57.05;;;8.80;99.90;;;;;;5017787;28;20089;-88
2023/04/23 05:38:22;;;;;;;177.75;59.25;;;8.80;99.90;;;;;;5013854;28;20041;-89
2023/04/23 05:40:50;;;;;;;155.45;57.45;;;8.80;99.90;;;;;;5016599;28;20174;-89
2023/04/23 05:43:16;;;;;;;164.18;58.83;;;8.90;99.90;;;;;;5017002;28;20345;-89
2023/04/23 05:45:42;;;;;;;165.55;61.00;;;8.90;99.90;;;;;;5013557;28;20039;-89
2023/04/23 05:48:08;;;;;;;151.02;59.15;;;8.90;99.90;;;;;;5020269;28;20043;-89
2023/04/23 05:50:34;;;;;;;159.27;59.97;;;9.00;99.90;;;;;;5014688;28;20049;-89
2023/04/23 05:52:59;;;;;;;166.15;57.55;;;9.10;99.90;;;;;;5018312;28;20059;-89
2023/04/23 05:55:25;;;;;;;157.55;57.90;;;9.10;99.90;;;;;;5019007;28;20079;-88
2023/04/23 05:57:51;;;;;;;156.40;56.80;;;9.20;99.90;;;;;;5035262;28;20235;-90
2023/04/23 06:00:19;;;;;;;139.77;56.17;;;9.30;99.90;;;;;;5015600;28;20607;-90
2023/04/23 06:02:46;;;;;;;148.25;57.20;;;9.30;99.90;;;;;;5017713;28;20049;-89
2023/04/23 06:05:12;;;;;;;150.95;57.05;;;9.30;99.90;;;;;;5015648;28;20040;-89
2023/04/23 06:07:38;;;;;;;145.45;55.88;;;9.30;99.90;;;;;;5034316;28;20518;-88
2023/04/23 06:10:04;;;;;;;126.70;53.88;;;9.30;99.90;;;;;;5019250;28;20037;-89
2023/04/23 06:12:31;;;;;;;138.50;58.15;;;9.40;99.90;;;;;;5017377;28;20309;-89
2023/04/23 06:14:57;;;;;;;124.13;52.90;;;9.40;99.90;;;;;;5020109;28;20041;-89
2023/04/23 06:17:23;;;;;;;120.75;52.33;;;9.50;99.90;;;;;;5017023;28;20131;-89
2023/04/23 06:19:48;;;;;;;116.30;53.03;;;9.60;99.90;;;;;;5018994;28;20155;-89
2023/04/23 06:22:14;;;;;;;126.80;55.22;;;9.80;99.90;;;;;;5015690;28;20041;-90
2023/04/23 06:24:40;;;;;;;117.00;51.38;;;10.00;99.90;;;;;;5013187;28;20044;-89
2023/04/23 06:27:05;;;;;;;120.60;54.10;;;10.10;99.90;;;;;;5035581;28;20453;-90
2023/04/23 06:29:31;;;;;;;135.35;58.33;;;10.40;99.90;;;;;;5014482;28;20080;-89
2023/04/23 06:32:01;;;;;;;124.90;54.53;;;10.60;99.90;;;;;;5017778;28;20098;-89
2023/04/23 06:34:27;;;;;;;108.65;53.47;;;10.60;99.90;;;;;;5014497;28;20223;-90
2023/04/23 06:36:53;;;;;;;107.25;51.45;;;10.70;99.90;;;;;;5036486;28;20124;-91
2023/04/23 06:39:19;;;;;;;97.05;51.55;;;10.60;99.90;;;;;;5019731;28;20041;-90
2023/04/23 06:41:45;;;;;;;96.55;47.58;;;10.50;99.90;;;;;;5015788;28;20143;-90
2023/04/23 06:44:11;;;;;;;100.28;48.47;;;10.60;99.90;;;;;;5017812;28;20385;-89
2023/04/23 06:46:36;;;;;;;91.60;48.88;;;10.80;99.90;;;;;;5017147;28;20076;-90
2023/04/23 06:49:02;;;;;;;89.78;46.33;;;10.80;99.90;;;;;;5014331;28;20046;-90
2023/04/23 06:51:34;;;;;;;88.15;45.97;;;10.80;99.90;;;;;;5015231;28;20025;-90
2023/04/23 06:53:59;;;;;;;85.65;45.63;;;10.80;99.90;;;;;;5034920;28;20047;-91
2023/04/23 06:56:26;;;;;;;79.15;44.08;;;10.90;99.90;;;;;;5048056;28;20041;-91
2023/04/23 06:58:52;;;;;;;78.13;43.45;;;11.10;99.90;;;;;;5014059;28;20064;-90
2023/04/23 07:01:18;;;;;;;80.28;44.80;;;11.10;99.90;;;;;;5016789;28;20049;-91
2023/04/23 07:03:47;;;;;;;75.53;42.78;;;11.30;99.90;;;;;;5018241;28;20136;-90
2023/04/23 07:06:16;;;;;;;71.75;41.53;;;11.20;99.90;;;;;;5035492;28;20119;-91
2023/04/23 07:08:43;;;;;;;62.78;37.80;;;11.30;99.90;;;;;;5032728;28;20046;-90
2023/04/23 07:11:09;;;;;;;61.90;37.25;;;11.30;99.90;;;;;;5030192;28;20331;-90
2023/04/23 07:13:36;;;;;;;59.88;36.78;;;11.30;99.90;;;;;;5018175;28;20053;-91
2023/04/23 07:16:02;;;;;;;59.03;36.88;;;11.50;99.90;;;;;;5014423;28;20041;-90
2023/04/23 07:18:28;;;;;;;61.45;37.17;;;11.60;99.90;;;;;;5031891;28;20396;-90
2023/04/23 07:20:53;;;;;;;60.58;36.25;;;11.70;99.90;;;;;;5019988;28;20367;-90
2023/04/23 07:23:19;;;;;;;58.92;36.85;;;11.70;99.90;;;;;;5034165;28;20045;-90
2023/04/23 07:25:45;;;;;;;56.17;34.88;;;11.80;99.90;;;;;;5014875;28;20273;-91
2023/04/23 07:28:11;;;;;;;57.60;35.05;;;12.00;99.90;;;;;;5032070;28;20534;-91
2023/04/23 07:30:36;;;;;;;54.13;35.90;;;12.00;99.90;;;;;;5033656;28;20056;-91
2023/04/23 07:33:02;;;;;;;54.13;34.80;;;12.20;99.90;;;;;;5015518;28;20044;-90
2023/04/23 07:35:29;;;;;;;48.42;32.38;;;12.20;99.90;;;;;;5031961;28;20430;-91
2023/04/23 07:37:56;;;;;;;53.25;33.78;;;12.40;99.90;;;;;;5014551;28;20430;-89
2023/04/23 07:40:23;;;;;;;51.53;34.60;;;12.70;99.90;;;;;;5031734;28;20416;-91
2023/04/23 07:42:50;;;;;;;51.40;34.90;;;12.50;99.90;;;;;;5029788;28;20106;-90
2023/04/23 07:45:16;;;;;;;54.17;34.90;;;12.90;99.90;;;;;;5016001;28;20094;-90
2023/04/23 07:47:42;;;;;;;53.65;35.20;;;12.60;99.90;;;;;;5017531;28;20108;-90
2023/04/23 07:50:09;;;;;;;49.13;33.42;;;13.00;99.90;;;;;;5030629;28;20132;-89
2023/04/23 07:52:34;;;;;;;49.47;34.08;;;13.00;99.90;;;;;;5014349;28;20049;-91
2023/04/23 07:55:01;;;;;;;50.83;32.80;;;13.00;99.90;;;;;;5032651;28;20174;-91
2023/04/23 07:57:27;;;;;;;49.58;32.85;;;13.10;99.90;;;;;;5029481;28;20103;-90
2023/04/23 07:59:52;;;;;;;48.58;32.33;;;13.20;99.90;;;;;;5030684;28;20037;-90
2023/04/23 08:02:22;;;;;;;43.63;31.40;;;13.10;99.90;;;;;;5015504;28;20315;-91
2023/04/23 08:04:48;;;;;;;46.97;33.10;;;13.00;99.90;;;;;;5014509;28;20033;-90
2023/04/23 08:07:14;;;;;;;44.08;29.95;;;13.20;99.90;;;;;;5035030;28;20315;-91
2023/04/23 08:09:40;;;;;;;43.83;30.20;;;13.20;99.90;;;;;;5018879;28;20137;-90
2023/04/23 08:12:06;;;;;;;41.47;30.25;;;13.40;99.90;;;;;;5033924;28;20099;-91
2023/04/23 08:14:31;;;;;;;41.38;28.95;;;13.50;99.90;;;;;;5040953;28;20485;-91
2023/04/23 08:16:57;;;;;;;41.85;29.05;;;13.40;99.90;;;;;;5017911;28;20453;-91
2023/04/23 08:19:23;;;;;;;41.10;28.13;;;13.50;99.90;;;;;;5033849;28;20266;-90
2023/04/23 08:21:49;;;;;;;41.95;29.83;;;13.60;99.90;;;;;;5034525;28;20041;-90
2023/04/23 08:24:15;;;;;;;41.60;29.70;;;13.90;99.90;;;;;;5036131;28;20611;-92
2023/04/23 08:26:43;;;;;;;39.65;28.75;;;13.80;99.90;;;;;;5015897;28;20048;-91
2023/04/23 08:29:09;;;;;;;35.78;25.38;;;14.00;99.90;;;;;;5014484;28;20064;-91
2023/04/23 08:31:36;;;;;;;36.72;26.17;;;13.90;99.90;;;;;;5018428;28;20457;-91
2023/04/23 08:34:01;;;;;;;36.60;25.90;;;13.90;99.90;;;;;;5035940;28;20108;-91
2023/04/23 08:36:28;;;;;;;37.17;26.67;;;14.00;99.90;;;;;;5018549;28;20139;-92
2023/04/23 08:38:53;;;;;;;36.05;26.65;;;14.10;99.90;;;;;;5035541;28;20045;-92
2023/04/23 08:41:25;;;;;;;36.83;26.25;;;14.00;99.90;;;;;;5017274;28;20047;-92
2023/04/23 08:44:02;;;;;;;34.38;25.40;;;14.20;99.90;;;;;;5019450;28;20041;-92
2023/04/23 08:46:31;;;;;;;32.17;24.15;;;14.30;99.90;;;;;;5017571;28;20107;-92
2023/04/23 08:48:59;;;;;;;33.58;25.60;;;14.20;99.90;;;;;;5042580;28;20124;-92
2023/04/23 08:51:29;;;;;;;35.80;26.17;;;14.40;99.90;;;;;;5037156;28;20079;-92
2023/04/23 08:53:57;;;;;;;32.47;23.92;;;14.50;99.90;;;;;;5034050;28;20439;-91
2023/04/23 08:56:24;;;;;;;31.05;22.48;;;14.70;99.90;;;;;;5037691;28;20033;-92
2023/04/23 08:58:49;;;;;;;32.65;23.25;;;14.90;99.90;;;;;;5018934;28;20454;-92
2023/04/23 09:01:17;;;;;;;34.22;22.92;;;14.90;99.90;;;;;;5020232;28;20339;-92
2023/04/23 09:03:43;;;;;;;27.70;20.35;;;15.20;99.90;;;;;;5022976;28;20049;-92
2023/04/23 09:06:15;;;;;;;29.65;21.80;;;15.10;99.90;;;;;;5016828;28;20118;-92
2023/04/23 09:08:41;;;;;;;26.63;20.33;;;15.20;99.90;;;;;;5035421;28;20037;-92
2023/04/23 09:11:15;;;;;;;27.98;21.00;;;15.10;99.90;;;;;;5017216;28;20098;-92
2023/04/23 09:13:41;;;;;;;27.73;20.60;;;15.60;99.90;;;;;;5028185;28;20366;-91
2023/04/23 09:16:07;;;;;;;27.13;20.48;;;15.40;99.90;;;;;;5035812;28;20082;-92
2023/04/23 09:18:34;;;;;;;26.95;18.88;;;15.80;99.90;;;;;;5033923;28;20237;-92
2023/04/23 09:21:03;;;;;;;24.48;18.17;;;15.80;99.90;;;;;;5019116;28;20053;-93
2023/04/23 09:23:33;;;;;;;26.13;17.20;;;16.00;99.90;;;;;;5034982;28;20448;-92
2023/04/23 09:25:58;;;;;;;23.02;16.20;;;16.20;99.90;;;;;;5019193;28;20408;-92
2023/04/23 09:28:37;;;;;;;22.00;16.08;;;16.50;99.90;;;;;;5017956;28;20037;-93
2023/04/23 09:31:06;;;;;;;21.35;16.90;;;16.30;99.90;;;;;;5023649;28;20087;-93
2023/04/23 09:33:34;;;;;;;17.83;12.27;;;16.20;99.90;;;;;;5018902;28;20067;-92
2023/04/23 09:36:08;;;;;;;16.75;11.75;;;16.10;99.90;;;;;;5013796;28;20103;-92
2023/04/23 09:38:34;;;;;;;18.75;12.23;;;15.90;99.90;;;;;;5037252;28;20051;-92
2023/04/23 09:41:23;;;;;;;13.85;8.95;;;16.40;99.90;;;;;;5020849;28;20041;-92
2023/04/23 09:43:51;;;;;;;14.15;10.35;;;16.10;99.90;;;;;;5033001;28;20052;-93
2023/04/23 09:46:17;;;;;;;17.52;11.80;;;16.50;99.90;;;;;;5034909;28;20059;-93
2023/04/23 09:48:43;;;;;;;17.38;12.40;;;16.90;99.90;;;;;;5032240;28;20033;-92
2023/04/23 09:51:12;;;;;;;14.27;10.02;;;16.70;99.90;;;;;;5037154;28;20090;-92
2023/04/23 09:53:46;;;;;;;17.00;11.48;;;16.60;99.90;;;;;;5019980;28;20037;-91
2023/04/23 09:56:11;;;;;;;17.95;10.85;;;16.60;99.90;;;;;;5042685;28;20102;-92
2023/04/23 09:58:37;;;;;;;14.13;10.55;;;16.50;99.90;;;;;;5016507;28;20483;-93
2023/04/23 10:01:07;;;;;;;15.43;9.02;;;16.40;99.90;;;;;;5018326;28;20072;-93
2023/04/23 10:03:33;;;;;;;11.65;8.63;;;16.10;99.90;;;;;;5015407;28;20076;-92
2023/04/23 10:05:58;;;;;;;13.65;9.15;;;15.90;99.90;;;;;;5031652;28;20045;-92
2023/04/23 10:08:24;;;;;;;15.45;9.35;;;16.00;99.90;;;;;;5034818;28;20081;-92
2023/04/23 10:10:50;;;;;;;15.93;9.63;;;16.40;99.90;;;;;;5035261;28;20479;-93
2023/04/23 10:13:17;;;;;;;15.43;8.60;;;16.80;99.90;;;;;;5014514;28;20080;-93
2023/04/23 10:15:45;;;;;;;13.82;8.30;;;17.30;99.90;;;;;;5038643;28;20400;-92
2023/04/23 10:18:13;;;;;;;12.27;7.43;;;17.90;99.90;;;;;;5021768;28;20064;-93
2023/04/23 10:20:40;;;;;;;10.93;6.45;;;17.90;99.90;;;;;;5019147;28;20045;-93
2023/04/23 10:23:08;;;;;;;12.50;7.00;;;18.40;99.90;;;;;;5015402;28;20519;-93
2023/04/23 10:25:38;;;;;;;12.05;6.40;;;18.80;99.90;;;;;;5019579;28;20132;-94
2023/04/23 10:28:04;;;;;;;11.05;6.00;;;18.90;99.90;;;;;;5018061;28;20544;-92
2023/04/23 10:30:31;;;;;;;12.82;6.45;;;18.40;99.90;;;;;;5020145;28;20041;-92
2023/04/23 10:33:00;;;;;;;12.98;7.35;;;18.30;99.90;;;;;;5011467;28;20071;-92
2023/04/23 10:35:26;;;;;;;10.68;6.43;;;18.30;99.90;;;;;;5032834;28;20033;-92
2023/04/23 10:37:55;;;;;;;10.70;6.18;;;18.70;99.90;;;;;;5019738;28;20490;-93
2023/04/23 10:40:28;;;;;;;10.65;6.20;;;18.40;99.90;;;;;;5036374;28;20593;-92
2023/04/23 10:42:54;;;;;;;10.52;6.32;;;18.90;99.90;;;;;;5035314;28;20118;-93
2023/04/23 10:45:21;;;;;;;10.65;6.13;;;19.00;99.90;;;;;;5018880;28;20036;-92
2023/04/23 10:47:47;;;;;;;11.82;5.53;;;19.10;99.90;;;;;;5020635;28;20090;-92
2023/04/23 10:50:33;;;;;;;10.55;5.80;;;19.10;99.90;;;;;;5021072;28;20041;-92
2023/04/23 10:53:00;;;;;;;10.85;5.95;;;19.60;99.90;;;;;;5037865;28;20120;-92
2023/04/23 10:55:28;;;;;;;8.13;5.13;;;19.30;1.00;;;;;;5018600;28;20498;-93
2023/04/23 10:57:58;;;;;;;10.98;5.63;;;19.10;99.90;;;;;;5038435;28;20036;-92
2023/04/23 11:00:25;;;;;;;10.23;5.35;;;19.40;29.80;;;;;;5034288;28;20534;-92
2023/04/23 11:02:54;;;;;;;9.70;5.10;;;19.40;99.90;;;;;;5018707;28;20036;-92
2023/04/23 11:05:22;;;;;;;8.63;5.03;;;19.10;62.60;;;;;;5019080;28;20036;-92
2023/04/23 11:08:05;;;;;;;11.38;5.60;;;19.30;99.90;;;;;;5018141;28;20041;-92
2023/04/23 11:10:32;;;;;;;9.52;5.07;;;19.40;1.00;;;;;;5032956;28;20037;-92
2023/04/23 11:13:25;;;;;;;10.00;4.50;;;19.20;99.90;;;;;;5020609;28;20054;-93
2023/04/23 11:16:22;;;;;;;9.50;4.90;;;19.20;1.00;;;;;;5033150;28;20353;-91
2023/04/23 11:19:10;;;;;;;8.80;4.70;;;19.40;1.00;;;;;;5013799;28;20155;-91
2023/04/23 11:21:58;;;;;;;8.45;4.43;;;19.80;99.90;;;;;;5019106;28;20408;-92
2023/04/23 11:24:32;;;;;;;6.72;4.55;;;19.60;99.90;;;;;;5016548;28;20106;-91
2023/04/23 11:27:04;;;;;;;8.70;4.65;;;19.20;1.00;;;;;;5016675;28;20287;-92
2023/04/23 11:29:30;;;;;;;10.23;4.32;;;19.60;1.00;;;;;;5033685;28;20136;-91
2023/04/23 11:31:59;;;;;;;7.43;3.90;;;19.60;28.60;;;;;;5036091;28;20128;-92
2023/04/23 11:34:28;;;;;;;6.43;3.42;;;20.10;99.90;;;;;;5020265;28;20202;-92
2023/04/23 11:36:55;;;;;;;5.72;3.17;;;20.60;99.90;;;;;;5032682;28;20037;-91
2023/04/23 11:39:23;;;;;;;7.90;2.85;;;20.60;1.00;;;;;;5017709;28;20041;-92
2023/04/23 11:41:49;;;;;;;6.32;3.38;;;20.40;99.90;;;;;;5016406;28;20125;-91
2023/04/23 11:44:15;;;;;;;5.28;3.25;;;19.90;99.90;;;;;;5022750;28;20075;-92
2023/04/23 11:46:45;;;;;;;5.75;2.65;;;20.30;99.90;;;;;;5020116;28;20044;-92
2023/04/23 11:49:12;;;;;;;6.65;2.70;;;20.20;1.00;;;;;;5018838;28;20036;-92
2023/04/23 11:51:45;;;;;;;5.43;2.72;;;20.30;99.90;;;;;;5022523;28;20449;-91
2023/04/23 11:54:12;;;;;;;4.30;2.38;;;20.00;1.00;;;;;;5039703;28;20086;-91
2023/04/23 11:56:39;;;;;;;4.85;2.35;;;20.00;1.00;;;;;;5019386;28;20408;-90
2023/04/23 11:59:05;;;;;;;5.93;2.78;;;20.00;99.90;;;;;;5021452;28;20037;-91
2023/04/23 12:01:49;;;;;;;6.03;2.75;;;20.20;1.00;;;;;;5037128;28;20037;-93
2023/04/23 12:04:16;;;;;;;5.10;2.47;;;20.50;99.90;;;;;;5018858;28;20103;-91
2023/04/23 12:06:43;;;;;;;7.32;2.17;;;20.90;99.90;;;;;;5037418;28;20142;-93
2023/04/23 12:09:10;;;;;;;4.35;1.80;;;21.20;99.90;;;;;;5038218;28;20774;-92
2023/04/23 12:11:37;;;;;;;4.38;2.55;;;21.00;99.90;;;;;;5037985;28;20045;-91
2023/04/23 12:14:02;;;;;;;4.82;2.30;;;21.20;19.50;;;;;;5032751;28;20091;-92
2023/04/23 12:16:50;;;;;;;5.45;2.15;;;20.90;1.00;;;;;;5019127;28;20088;-92
2023/04/23 12:19:25;;;;;;;4.88;2.00;;;20.70;99.90;;;;;;5019412;28;20033;-90
2023/04/23 12:21:53;;;;;;;4.38;2.05;;;20.00;99.90;;;;;;5019939;28;20599;-92
2023/04/23 12:24:30;;;;;;;6.40;2.10;;;19.50;98.40;;;;;;5020611;28;20724;-92
2023/04/23 12:27:01;;;;;;;5.30;2.00;;;19.40;99.90;;;;;;5034324;28;20451;-91
2023/04/23 12:29:29;;;;;;;5.53;2.15;;;19.10;1.00;;;;;;5023347;28;20036;-91
2023/04/23 12:31:58;;;;;;;6.43;2.50;;;19.10;99.90;;;;;;5036526;28;20064;-90
2023/04/23 12:34:24;;;;;;;7.05;2.67;;;19.10;82.00;;;;;;5024074;28;20068;-91